Time;durP1;ratioP1;P1;durP2;ratioP2;P2;SDS_P1;SDS_P2;PMS_P1;PMS_P2;Temp;Humidity;BMP_temperature;BMP_pressure;BME280_temperature;BME280_humidity;BME280_pressure;Samples;Min_cycle;Max_cycle;Signal;HPM_P1;HPM_P2
2023/04/10 00:00:56;;;;;;;;;;;;;;;;;;2200878;59;2115;-24
2023/04/10 00:03:26;;;;;;;;;;;;;;;;;;2204702;67;1589;-24
2023/04/10 00:05:56;;;;;;;;;;;;;;;;;;2203363;59;2256;-24
2023/04/10 00:08:26;;;;;;;;;;;;;;;;;;2204773;67;1200;-24
2023/04/10 00:10:57;;;;;;;;;;;;;;;;;;2204327;59;2230;-24
2023/04/10 00:13:27;;;;;;;;;;;;;;;;;;2201039;67;1621;-24
2023/04/10 00:15:57;;;;;;;;;;;;;;;;;;2203999;59;2095;-24
2023/04/10 00:18:28;;;;;;;;;;;;;;;;;;2204402;67;1148;-24
2023/04/10 00:20:58;;;;;;;;;;;;;;;;;;2203819;67;2091;-24
2023/04/10 00:23:30;;;;;;;;;;;;;;;;;;2204107;67;1119;-24
2023/04/10 00:26:00;;;;;;;;;;;;;;;;;;2203736;67;2346;-24
2023/04/10 00:28:31;;;;;;;;;;;;;;;;;;2204128;59;2146;-24
2023/04/10 00:31:01;;;;;;;;;;;;;;;;;;2203489;59;2120;-24
2023/04/10 00:33:31;;;;;;;;;;;;;;;;;;2204427;67;1206;-24
2023/04/10 00:36:01;;;;;;;;;;;;;;;;;;2204034;59;2195;-24
2023/04/10 00:38:32;;;;;;;;;;;;;;;;;;2204681;67;1332;-24
2023/04/10 00:41:02;;;;;;;;;;;;;;;;;;2204170;59;2163;-24
2023/04/10 00:43:32;;;;;;;;;;;;;;;;;;2204743;67;2227;-24
2023/04/10 00:46:03;;;;;;;;;;;;;;;;;;2200349;59;2068;-24
2023/04/10 00:48:34;;;;;;;;;;;;;;;;;;2204284;67;1248;-24
2023/04/10 00:51:05;;;;;;;;;;;;;;;;;;2202495;59;2334;-24
2023/04/10 00:53:35;;;;;;;;;;;;;;;;;;2200576;67;1403;-24
2023/04/10 00:56:05;;;;;;;;;;;;;;;;;;2203831;59;2294;-24
2023/04/10 00:58:36;;;;;;;;;;;;;;;;;;2204191;59;1771;-24
2023/04/10 01:01:07;;;;;;;;;;;;;;;;;;2203777;59;2107;-24
2023/04/10 01:03:38;;;;;;;;;;;;;;;;;;2201080;67;1334;-24
2023/04/10 01:06:11;;;;;;;;;;;;;;;;;;2199993;59;2257;-24
2023/04/10 01:08:41;;;;;;;;;;;;;;;;;;2204469;59;1696;-24
2023/04/10 01:11:24;;;;;;;;;;;;;;;;;;2203084;59;2227;-24
2023/04/10 01:14:04;;;;;;;;;;;;;;;;;;2204254;67;2237;-24
2023/04/10 01:16:43;;;;;;;;;;;;;;;;;;2204502;59;2085;-24
2023/04/10 01:19:35;;;;;;;;;;;;;;;;;;2203964;67;1530;-24
2023/04/10 01:22:09;;;;;;;;;;;;;;;;;;2203773;67;2493;-24
2023/04/10 01:24:49;;;;;;;;;;;;;;;;;;2202642;67;1369;-24
2023/04/10 01:27:42;;;;;;;;;;;;;;;;;;2202735;59;2756;-24
2023/04/10 01:30:15;;;;;;;;;;;;;;;;;;2198287;59;1206;-24
2023/04/10 01:32:46;;;;;;;;;;;;;;;;;;2201103;59;2193;-24
2023/04/10 01:35:16;;;;;;;;;;;;;;;;;;2203830;59;1183;-24
2023/04/10 01:37:48;;;;;;;;;;;;;;;;;;2200954;59;2094;-24
2023/04/10 01:40:20;;;;;;;;;;;;;;;;;;2200170;67;1499;-25
2023/04/10 01:42:51;;;;;;;;;;;;;;;;;;2203936;59;2075;-24
2023/04/10 01:45:24;;;;;;;;;;;;;;;;;;2203618;59;1654;-24
2023/04/10 01:47:55;;;;;;;;;;;;;;;;;;2203899;59;2038;-24
2023/04/10 01:50:26;;;;;;;;;;;;;;;;;;2203619;59;1936;-24
2023/04/10 01:52:58;;;;;;;;;;;;;;;;;;2204013;59;2364;-24
2023/04/10 01:55:28;;;;;;;;;;;;;;;;;;2198873;67;1355;-24
2023/04/10 01:57:59;;;;;;;;;;;;;;;;;;2200337;59;2276;-24
2023/04/10 02:00:36;;;;;;;;;;;;;;;;;;2205767;59;2298;-17
2023/04/10 02:03:06;;;;;;;;;;;;;;;;;;2202096;59;2051;-16
2023/04/10 02:05:45;;;;;;;;;;;;;;;;;;2203887;59;1212;-16
2023/04/10 02:08:20;;;;;;;;;;;;;;;;;;2199716;59;2270;-17
2023/04/10 02:10:53;;;;;;;;;;;;;;;;;;2204476;59;1931;-16
2023/04/10 02:13:25;;;;;;;;;;;;;;;;;;2203282;59;2038;-17
2023/04/10 02:15:58;;;;;;;;;;;;;;;;;;2200679;59;1896;-16
2023/04/10 02:18:29;;;;;;;;;;;;;;;;;;2203362;59;2300;-17
2023/04/10 02:21:00;;;;;;;;;;;;;;;;;;2203794;59;2044;-16
2023/04/10 02:23:30;;;;;;;;;;;;;;;;;;2205012;59;2087;-17
2023/04/10 02:26:07;;;;;;;;;;;;;;;;;;2203235;59;1429;-17
2023/04/10 02:28:38;;;;;;;;;;;;;;;;;;2205167;59;2127;-17
2023/04/10 02:31:09;;;;;;;;;;;;;;;;;;2203767;59;1886;-16
2023/04/10 02:33:39;;;;;;;;;;;;;;;;;;2200120;59;2259;-16
2023/04/10 02:36:10;;;;;;;;;;;;;;;;;;2205723;59;1239;-17
2023/04/10 02:38:40;;;;;;;;;;;;;;;;;;2207146;59;1319;-16
2023/04/10 02:41:10;;;;;;;;;;;;;;;;;;2203465;59;2290;-16
2023/04/10 02:43:41;;;;;;;;;;;;;;;;;;2204053;67;1293;-16
2023/04/10 02:46:11;;;;;;;;;;;;;;;;;;2203953;59;2418;-17
2023/04/10 02:48:42;;;;;;;;;;;;;;;;;;2204362;67;1132;-17
2023/04/10 02:51:12;;;;;;;;;;;;;;;;;;2202952;59;2164;-17
2023/04/10 02:53:43;;;;;;;;;;;;;;;;;;2200735;67;2374;-16
2023/04/10 02:56:17;;;;;;;;;;;;;;;;;;2203071;59;2119;-17
2023/04/10 02:58:47;;;;;;;;;;;;;;;;;;2203667;59;1201;-16
2023/04/10 03:01:18;;;;;;;;;;;;;;;;;;2202437;59;2199;-16
2023/04/10 03:03:48;;;;;;;;;;;;;;;;;;2202790;67;1470;-16
2023/04/10 03:06:18;;;;;;;;;;;;;;;;;;2203043;59;2106;-16
2023/04/10 03:08:49;;;;;;;;;;;;;;;;;;2203748;59;1104;-17
2023/04/10 03:11:19;;;;;;;;;;;;;;;;;;2202837;59;2176;-17
2023/04/10 03:13:50;;;;;;;;;;;;;;;;;;2203583;67;1269;-16
2023/04/10 03:16:20;;;;;;;;;;;;;;;;;;2203595;59;2137;-16
2023/04/10 03:18:51;;;;;;;;;;;;;;;;;;2204100;67;1395;-16
2023/04/10 03:21:21;;;;;;;;;;;;;;;;;;2203441;59;2070;-16
2023/04/10 03:23:52;;;;;;;;;;;;;;;;;;2203045;67;1337;-16
2023/04/10 03:26:22;;;;;;;;;;;;;;;;;;2203295;59;2010;-19
2023/04/10 03:28:53;;;;;;;;;;;;;;;;;;2204237;59;1763;-19
2023/04/10 03:31:23;;;;;;;;;;;;;;;;;;2203829;59;2646;-19
2023/04/10 03:33:53;;;;;;;;;;;;;;;;;;2199432;67;1392;-19
2023/04/10 03:36:24;;;;;;;;;;;;;;;;;;2203009;59;2096;-19
2023/04/10 03:38:54;;;;;;;;;;;;;;;;;;2203583;67;1154;-19
2023/04/10 03:41:25;;;;;;;;;;;;;;;;;;2203114;59;2196;-19
2023/04/10 03:43:55;;;;;;;;;;;;;;;;;;2202917;67;1611;-19
2023/04/10 03:46:25;;;;;;;;;;;;;;;;;;2203311;59;2179;-19
2023/04/10 03:48:56;;;;;;;;;;;;;;;;;;2203585;67;1119;-19
2023/04/10 03:51:26;;;;;;;;;;;;;;;;;;2203000;59;2244;-19
2023/04/10 03:53:57;;;;;;;;;;;;;;;;;;2202917;67;2547;-19
2023/04/10 03:56:27;;;;;;;;;;;;;;;;;;2203227;59;2983;-19
2023/04/10 03:58:58;;;;;;;;;;;;;;;;;;2203219;67;1517;-19
2023/04/10 04:01:28;;;;;;;;;;;;;;;;;;2202920;59;2265;-19
2023/04/10 04:03:58;;;;;;;;;;;;;;;;;;2203646;67;1228;-19
2023/04/10 04:06:30;;;;;;;;;;;;;;;;;;2203434;67;2385;-19
2023/04/10 04:09:00;;;;;;;;;;;;;;;;;;2204021;59;1938;-19
2023/04/10 04:11:30;;;;;;;;;;;;;;;;;;2203381;59;2197;-19
2023/04/10 04:14:00;;;;;;;;;;;;;;;;;;2203726;67;1418;-19
2023/04/10 04:16:31;;;;;;;;;;;;;;;;;;2203604;59;2162;-19
2023/04/10 04:19:01;;;;;;;;;;;;;;;;;;2202916;67;1264;-19
2023/04/10 04:21:31;;;;;;;;;;;;;;;;;;2203847;67;1215;-19
2023/04/10 04:24:02;;;;;;;;;;;;;;;;;;2202199;59;2613;-19
2023/04/10 04:26:32;;;;;;;;;;;;;;;;;;2203091;67;1117;-19
2023/04/10 04:29:03;;;;;;;;;;;;;;;;;;2203015;59;2147;-19
2023/04/10 04:31:33;;;;;;;;;;;;;;;;;;2203495;59;2019;-19
2023/04/10 04:34:04;;;;;;;;;;;;;;;;;;2203498;59;2084;-19
2023/04/10 04:36:34;;;;;;;;;;;;;;;;;;2203241;59;1409;-19
2023/04/10 04:39:04;;;;;;;;;;;;;;;;;;2203536;59;2239;-19
2023/04/10 04:41:35;;;;;;;;;;;;;;;;;;2203258;59;1508;-19
2023/04/10 04:44:05;;;;;;;;;;;;;;;;;;2203437;59;2292;-19
2023/04/10 04:46:35;;;;;;;;;;;;;;;;;;2203381;59;1788;-19
2023/04/10 04:49:08;;;;;;;;;;;;;;;;;;2203042;59;2308;-19
2023/04/10 04:51:39;;;;;;;;;;;;;;;;;;2202999;67;2300;-19
2023/04/10 04:54:09;;;;;;;;;;;;;;;;;;2202195;59;2070;-19
2023/04/10 04:56:43;;;;;;;;;;;;;;;;;;2202599;59;1941;-19
2023/04/10 04:59:13;;;;;;;;;;;;;;;;;;2203088;59;2255;-19
2023/04/10 05:01:43;;;;;;;;;;;;;;;;;;2202744;59;2101;-19
2023/04/10 05:04:14;;;;;;;;;;;;;;;;;;2205290;59;2211;-19
2023/04/10 05:06:45;;;;;;;;;;;;;;;;;;2202900;67;1181;-19
2023/04/10 05:09:15;;;;;;;;;;;;;;;;;;2203250;59;2244;-19
2023/04/10 05:11:46;;;;;;;;;;;;;;;;;;2203046;67;1902;-18
2023/04/10 05:14:16;;;;;;;;;;;;;;;;;;2205980;59;2304;-19
2023/04/10 05:16:46;;;;;;;;;;;;;;;;;;2203694;67;1749;-19
2023/04/10 05:19:17;;;;;;;;;;;;;;;;;;2202845;59;2207;-19
2023/04/10 05:21:47;;;;;;;;;;;;;;;;;;2203167;59;1631;-19
2023/04/10 05:24:18;;;;;;;;;;;;;;;;;;2203081;60;1982;-19
2023/04/10 05:26:48;;;;;;;;;;;;;;;;;;2201926;59;1116;-18
2023/04/10 05:29:18;;;;;;;;;;;;;;;;;;2205047;59;2172;-19
2023/04/10 05:31:50;;;;;;;;;;;;;;;;;;2203244;59;1921;-19
2023/04/10 05:34:20;;;;;;;;;;;;;;;;;;2205216;59;2043;-19
2023/04/10 05:36:50;;;;;;;;;;;;;;;;;;2202498;59;1605;-19
2023/04/10 05:39:20;;;;;;;;;;;;;;;;;;2203210;59;2035;-19
2023/04/10 05:41:51;;;;;;;;;;;;;;;;;;2202680;59;1411;-19
2023/04/10 05:44:21;;;;;;;;;;;;;;;;;;2203344;59;2286;-19
2023/04/10 05:46:55;;;;;;;;;;;;;;;;;;2203198;59;2312;-19
2023/04/10 05:49:25;;;;;;;;;;;;;;;;;;2202818;67;2308;-19
2023/04/10 05:51:55;;;;;;;;;;;;;;;;;;2203054;67;1942;-19
2023/04/10 05:54:25;;;;;;;;;;;;;;;;;;2202507;59;2034;-19
2023/04/10 05:56:56;;;;;;;;;;;;;;;;;;2202773;67;1155;-19
2023/04/10 05:59:26;;;;;;;;;;;;;;;;;;2203384;59;2206;-19
2023/04/10 06:01:57;;;;;;;;;;;;;;;;;;2199541;59;2219;-19
2023/04/10 06:04:27;;;;;;;;;;;;;;;;;;2199565;59;2385;-19
2023/04/10 06:06:57;;;;;;;;;;;;;;;;;;2199910;60;2608;-16
2023/04/10 06:09:28;;;;;;;;;;;;;;;;;;2195954;59;1856;-17
2023/04/10 06:11:58;;;;;;;;;;;;;;;;;;2199141;59;1995;-16
2023/04/10 06:14:31;;;;;;;;;;;;;;;;;;2196753;67;1322;-17
2023/04/10 06:17:02;;;;;;;;;;;;;;;;;;2196148;59;2265;-16
2023/04/10 06:19:32;;;;;;;;;;;;;;;;;;2196102;67;1749;-17
2023/04/10 06:22:02;;;;;;;;;;;;;;;;;;2199191;59;2031;-16
2023/04/10 06:24:35;;;;;;;;;;;;;;;;;;2200600;67;1463;-17
2023/04/10 06:27:06;;;;;;;;;;;;;;;;;;2201741;59;2162;-17
2023/04/10 06:29:36;;;;;;;;;;;;;;;;;;2199255;59;1672;-17
2023/04/10 06:32:06;;;;;;;;;;;;;;;;;;2198758;59;2458;-17
2023/04/10 06:34:36;;;;;;;;;;;;;;;;;;2196563;59;1970;-17
2023/04/10 06:37:07;;;;;;;;;;;;;;;;;;2199305;59;2104;-17
2023/04/10 06:39:38;;;;;;;;;;;;;;;;;;2199270;67;1225;-17
2023/04/10 06:42:08;;;;;;;;;;;;;;;;;;2198821;60;2181;-16
2023/04/10 06:44:38;;;;;;;;;;;;;;;;;;2199795;59;1788;-17
2023/04/10 06:47:09;;;;;;;;;;;;;;;;;;2199111;59;2202;-16
2023/04/10 06:49:39;;;;;;;;;;;;;;;;;;2199871;59;1264;-16
2023/04/10 06:52:10;;;;;;;;;;;;;;;;;;2196189;59;2399;-17
2023/04/10 06:54:40;;;;;;;;;;;;;;;;;;2199967;67;1250;-16
2023/04/10 06:57:10;;;;;;;;;;;;;;;;;;2197699;59;2734;-17
2023/04/10 06:59:41;;;;;;;;;;;;;;;;;;2200193;59;2149;-16
2023/04/10 07:02:11;;;;;;;;;;;;;;;;;;2203740;59;2096;-17
2023/04/10 07:04:42;;;;;;;;;;;;;;;;;;2203091;59;1810;-17
2023/04/10 07:07:14;;;;;;;;;;;;;;;;;;2202307;59;2109;-17
2023/04/10 07:09:45;;;;;;;;;;;;;;;;;;2203625;59;1228;-17
2023/04/10 07:12:15;;;;;;;;;;;;;;;;;;2203758;59;2295;-17
2023/04/10 07:14:46;;;;;;;;;;;;;;;;;;2203071;67;2693;-17
2023/04/10 07:17:16;;;;;;;;;;;;;;;;;;2203265;59;2272;-17
2023/04/10 07:19:46;;;;;;;;;;;;;;;;;;2204623;67;1322;-17
2023/04/10 07:22:17;;;;;;;;;;;;;;;;;;2204076;59;2110;-17
2023/04/10 07:24:48;;;;;;;;;;;;;;;;;;2203622;67;1160;-17
2023/04/10 07:27:19;;;;;;;;;;;;;;;;;;2203318;59;2048;-17
2023/04/10 07:29:51;;;;;;;;;;;;;;;;;;2203555;59;1309;-17
2023/04/10 07:32:22;;;;;;;;;;;;;;;;;;2203218;59;2069;-17
2023/04/10 07:34:52;;;;;;;;;;;;;;;;;;2203847;59;2137;-17
2023/04/10 07:37:22;;;;;;;;;;;;;;;;;;2203185;59;2141;-17
2023/04/10 07:39:53;;;;;;;;;;;;;;;;;;2202926;59;2240;-18
2023/04/10 07:42:23;;;;;;;;;;;;;;;;;;2202154;59;1342;-17
2023/04/10 07:44:53;;;;;;;;;;;;;;;;;;2202632;59;1735;-18
2023/04/10 07:47:24;;;;;;;;;;;;;;;;;;2202680;59;1445;-18
2023/04/10 07:49:55;;;;;;;;;;;;;;;;;;2202578;67;1276;-17
2023/04/10 07:52:25;;;;;;;;;;;;;;;;;;2203107;67;2095;-17
2023/04/10 07:54:56;;;;;;;;;;;;;;;;;;2202383;59;2258;-17
2023/04/10 07:57:26;;;;;;;;;;;;;;;;;;2203995;67;1201;-17
2023/04/10 07:59:56;;;;;;;;;;;;;;;;;;2209733;54;1686;-23
2023/04/10 08:02:27;;;;;;;;;;;;;;;;;;2195503;59;1689;-23
2023/04/10 08:04:57;;;;;;;;;;;;;;;;;;2192709;67;1394;-23
2023/04/10 08:07:27;;;;;;;;;;;;;;;;;;2196757;59;2247;-23
2023/04/10 08:09:57;;;;;;;;;;;;;;;;;;2197105;59;1294;-23
2023/04/10 08:12:28;;;;;;;;;;;;;;;;;;2195937;67;2080;-23
2023/04/10 08:14:58;;;;;;;;;;;;;;;;;;2196511;67;1144;-23
2023/04/10 08:17:28;;;;;;;;;;;;;;;;;;2194178;67;1364;-23
2023/04/10 08:19:58;;;;;;;;;;;;;;;;;;2195829;67;1312;-23
2023/04/10 08:22:29;;;;;;;;;;;;;;;;;;2195551;67;1333;-23
2023/04/10 08:24:59;;;;;;;;;;;;;;;;;;2195691;67;1388;-23
2023/04/10 08:27:29;;;;;;;;;;;;;;;;;;2195953;59;1191;-23
2023/04/10 08:29:59;;;;;;;;;;;;;;;;;;2195962;59;1334;-23
2023/04/10 08:32:30;;;;;;;;;;;;;;;;;;2191470;67;1937;-23
2023/04/10 08:35:00;;;;;;;;;;;;;;;;;;2195921;59;1278;-24
2023/04/10 08:37:30;;;;;;;;;;;;;;;;;;2195918;67;1883;-23
2023/04/10 08:40:00;;;;;;;;;;;;;;;;;;2196686;67;1835;-23
2023/04/10 08:42:31;;;;;;;;;;;;;;;;;;2196521;67;1430;-23
2023/04/10 08:45:02;;;;;;;;;;;;;;;;;;2195735;59;1700;-23
2023/04/10 08:47:34;;;;;;;;;;;;;;;;;;2195785;67;1301;-23
2023/04/10 08:50:06;;;;;;;;;;;;;;;;;;2196078;59;1483;-23
2023/04/10 08:52:37;;;;;;;;;;;;;;;;;;2195799;67;1945;-23
2023/04/10 08:55:08;;;;;;;;;;;;;;;;;;2195620;67;1229;-23
2023/04/10 08:57:39;;;;;;;;;;;;;;;;;;2196592;67;1660;-23
2023/04/10 09:00:09;;;;;;;;;;;;;;;;;;2196040;59;1900;-23
2023/04/10 09:02:40;;;;;;;;;;;;;;;;;;2194138;67;1342;-23
2023/04/10 09:05:11;;;;;;;;;;;;;;;;;;2195891;67;2607;-24
2023/04/10 09:07:44;;;;;;;;;;;;;;;;;;2196703;67;2214;-24
2023/04/10 09:10:14;;;;;;;;;;;;;;;;;;2192417;59;1342;-23
2023/04/10 09:12:46;;;;;;;;;;;;;;;;;;2196839;67;1923;-23
2023/04/10 09:15:16;;;;;;;;;;;;;;;;;;2195997;67;2214;-23
2023/04/10 09:17:53;;;;;;;;;;;;;;;;;;2192653;67;1571;-23
2023/04/10 09:20:24;;;;;;;;;;;;;;;;;;2195969;67;2069;-23
2023/04/10 09:22:55;;;;;;;;;;;;;;;;;;2196157;59;1124;-23
2023/04/10 09:25:33;;;;;;;;;;;;;;;;;;2195515;59;1319;-23
2023/04/10 09:28:06;;;;;;;;;;;;;;;;;;2195933;59;1352;-23
2023/04/10 09:30:41;;;;;;;;;;;;;;;;;;2197047;59;1411;-23
2023/04/10 09:33:20;;;;;;;;;;;;;;;;;;2196420;67;1691;-23
2023/04/10 09:35:50;;;;;;;;;;;;;;;;;;2196189;59;1398;-23
2023/04/10 09:38:24;;;;;;;;;;;;;;;;;;2196165;59;1134;-23
2023/04/10 09:41:05;;;;;;;;;;;;;;;;;;2195921;59;1334;-23
2023/04/10 09:43:35;;;;;;;;;;;;;;;;;;2195792;67;1287;-23
2023/04/10 09:46:05;;;;;;;;;;;;;;;;;;2196415;59;1744;-23
2023/04/10 09:48:36;;;;;;;;;;;;;;;;;;2196083;67;1292;-23
2023/04/10 09:51:06;;;;;;;;;;;;;;;;;;2195870;67;1940;-24
2023/04/10 09:53:47;;;;;;;;;;;;;;;;;;2193037;67;1281;-23
2023/04/10 09:56:18;;;;;;;;;;;;;;;;;;2196265;67;1719;-23
2023/04/10 09:58:50;;;;;;;;;;;;;;;;;;2196091;59;1306;-23
2023/04/10 10:01:20;;;;;;;;;;;;;;;;;;2195933;59;1472;-23
2023/04/10 10:03:51;;;;;;;;;;;;;;;;;;2195266;67;1261;-23
2023/04/10 10:06:22;;;;;;;;;;;;;;;;;;2195905;67;1301;-24
2023/04/10 10:08:52;;;;;;;;;;;;;;;;;;2196340;59;1156;-23
2023/04/10 10:11:23;;;;;;;;;;;;;;;;;;2195348;59;1925;-23
2023/04/10 10:13:55;;;;;;;;;;;;;;;;;;2192369;59;1850;-24
2023/04/10 10:16:26;;;;;;;;;;;;;;;;;;2198255;67;1291;-23
2023/04/10 10:19:10;;;;;;;;;;;;;;;;;;2191847;67;1309;-23
2023/04/10 10:21:43;;;;;;;;;;;;;;;;;;2194906;67;1264;-23
2023/04/10 10:24:14;;;;;;;;;;;;;;;;;;2192866;67;1843;-24
2023/04/10 10:26:45;;;;;;;;;;;;;;;;;;2196792;59;1366;-23
2023/04/10 10:29:17;;;;;;;;;;;;;;;;;;2196266;64;1671;-23
2023/04/10 10:31:51;;;;;;;;;;;;;;;;;;2196348;59;1933;-23
2023/04/10 10:34:21;;;;;;;;;;;;;;;;;;2196901;67;1300;-24
2023/04/10 10:36:52;;;;;;;;;;;;;;;;;;2196476;59;1303;-24
2023/04/10 10:39:25;;;;;;;;;;;;;;;;;;2196051;67;1225;-23
2023/04/10 10:42:07;;;;;;;;;;;;;;;;;;2196575;59;1327;-23
2023/04/10 10:44:44;;;;;;;;;;;;;;;;;;2196807;59;1714;-24
2023/04/10 10:47:16;;;;;;;;;;;;;;;;;;2192841;67;2257;-24
2023/04/10 10:49:57;;;;;;;;;;;;;;;;;;2193397;59;1469;-24
2023/04/10 10:52:37;;;;;;;;;;;;;;;;;;2193151;59;1983;-23
2023/04/10 10:55:38;;;;;;;;;;;;;;;;;;2195981;67;1114;-24
2023/04/10 10:58:10;;;;;;;;;;;;;;;;;;2195747;67;1279;-24
2023/04/10 11:00:49;;;;;;;;;;;;;;;;;;2196315;59;1239;-24
2023/04/10 11:03:21;;;;;;;;;;;;;;;;;;2193282;67;2476;-24
2023/04/10 11:05:53;;;;;;;;;;;;;;;;;;2193891;67;1288;-24
2023/04/10 11:08:34;;;;;;;;;;;;;;;;;;2196251;59;1800;-24
2023/04/10 11:11:05;;;;;;;;;;;;;;;;;;2197311;59;1928;-24
2023/04/10 11:13:37;;;;;;;;;;;;;;;;;;2196645;67;1146;-24
2023/04/10 11:16:11;;;;;;;;;;;;;;;;;;2196218;67;981;-23
2023/04/10 11:18:48;;;;;;;;;;;;;;;;;;2194338;67;1564;-24
2023/04/10 11:21:19;;;;;;;;;;;;;;;;;;2192826;67;1254;-24
2023/04/10 11:23:50;;;;;;;;;;;;;;;;;;2195989;59;1899;-23
2023/04/10 11:26:42;;;;;;;;;;;;;;;;;;2195932;67;1150;-23
2023/04/10 11:29:16;;;;;;;;;;;;;;;;;;2193330;59;1308;-24
2023/04/10 11:31:53;;;;;;;;;;;;;;;;;;2193150;59;1995;-24
2023/04/10 11:34:26;;;;;;;;;;;;;;;;;;2196818;67;1100;-24
2023/04/10 11:36:56;;;;;;;;;;;;;;;;;;2196553;59;1724;-24
2023/04/10 11:39:26;;;;;;;;;;;;;;;;;;2194029;67;1449;-24
2023/04/10 11:41:57;;;;;;;;;;;;;;;;;;2195700;59;1784;-24
2023/04/10 11:44:29;;;;;;;;;;;;;;;;;;2196357;67;1134;-24
2023/04/10 11:46:59;;;;;;;;;;;;;;;;;;2196511;59;1672;-24
2023/04/10 11:49:31;;;;;;;;;;;;;;;;;;2196282;67;1290;-24
2023/04/10 11:52:02;;;;;;;;;;;;;;;;;;2195772;67;1949;-23
2023/04/10 11:54:32;;;;;;;;;;;;;;;;;;2196402;59;1356;-24
2023/04/10 11:57:04;;;;;;;;;;;;;;;;;;2193004;59;1208;-23
2023/04/10 11:59:34;;;;;;;;;;;;;;;;;;2196332;59;1080;-24
2023/04/10 12:02:14;;;;;;;;;;;;;;;;;;2196626;59;1636;-23
2023/04/10 12:04:44;;;;;;;;;;;;;;;;;;2196554;67;1120;-24
2023/04/10 12:07:15;;;;;;;;;;;;;;;;;;2196079;67;2323;-24
2023/04/10 12:09:45;;;;;;;;;;;;;;;;;;2196168;59;1256;-24
2023/04/10 12:12:16;;;;;;;;;;;;;;;;;;2194218;67;1935;-24
2023/04/10 12:14:46;;;;;;;;;;;;;;;;;;2193227;67;1605;-24
2023/04/10 12:17:16;;;;;;;;;;;;;;;;;;2193709;67;1363;-24
2023/04/10 12:19:47;;;;;;;;;;;;;;;;;;2196351;59;1113;-24
2023/04/10 12:22:17;;;;;;;;;;;;;;;;;;2196014;67;1371;-24
2023/04/10 12:24:49;;;;;;;;;;;;;;;;;;2195811;59;1518;-24
2023/04/10 12:27:26;;;;;;;;;;;;;;;;;;2196132;67;1325;-24
2023/04/10 12:29:57;;;;;;;;;;;;;;;;;;2195991;59;1400;-24
2023/04/10 12:32:27;;;;;;;;;;;;;;;;;;2196268;59;1945;-24
2023/04/10 12:35:00;;;;;;;;;;;;;;;;;;2196351;59;1219;-24
2023/04/10 12:37:49;;;;;;;;;;;;;;;;;;2196248;67;1331;-24
2023/04/10 12:40:20;;;;;;;;;;;;;;;;;;2195950;67;1787;-24
2023/04/10 12:42:50;;;;;;;;;;;;;;;;;;2196131;59;1698;-24
2023/04/10 12:45:20;;;;;;;;;;;;;;;;;;2196150;59;1761;-24
2023/04/10 12:47:52;;;;;;;;;;;;;;;;;;2196111;67;1161;-23
2023/04/10 12:50:23;;;;;;;;;;;;;;;;;;2195899;59;1678;-23
2023/04/10 12:53:03;;;;;;;;;;;;;;;;;;2196249;67;1944;-23
2023/04/10 12:55:33;;;;;;;;;;;;;;;;;;2193724;67;1589;-23
2023/04/10 12:58:19;;;;;;;;;;;;;;;;;;2192702;59;1556;-23
2023/04/10 13:00:49;;;;;;;;;;;;;;;;;;2196649;67;1526;-23
2023/04/10 13:03:20;;;;;;;;;;;;;;;;;;2196106;67;1349;-23
2023/04/10 13:05:50;;;;;;;;;;;;;;;;;;2196655;67;1876;-23
2023/04/10 13:08:21;;;;;;;;;;;;;;;;;;2193347;67;2266;-23
2023/04/10 13:10:51;;;;;;;;;;;;;;;;;;2194460;59;2204;-23
2023/04/10 13:13:21;;;;;;;;;;;;;;;;;;2190038;59;2156;-23
2023/04/10 13:15:52;;;;;;;;;;;;;;;;;;2195911;59;2195;-23
2023/04/10 13:18:22;;;;;;;;;;;;;;;;;;2196299;59;1211;-23
2023/04/10 13:20:52;;;;;;;;;;;;;;;;;;2196174;59;1951;-23
2023/04/10 13:23:23;;;;;;;;;;;;;;;;;;2196153;67;2705;-23
2023/04/10 13:25:53;;;;;;;;;;;;;;;;;;2195662;59;3562;-23
2023/04/10 13:28:23;;;;;;;;;;;;;;;;;;2190865;59;1713;-23
2023/04/10 13:30:53;;;;;;;;;;;;;;;;;;2195401;59;2073;-21
2023/04/10 13:33:24;;;;;;;;;;;;;;;;;;2196402;67;2119;-24
2023/04/10 13:35:54;;;;;;;;;;;;;;;;;;2196196;59;2196;-24
2023/04/10 13:38:24;;;;;;;;;;;;;;;;;;2193107;67;2208;-24
2023/04/10 13:40:55;;;;;;;;;;;;;;;;;;2196194;59;2073;-24
2023/04/10 13:43:25;;;;;;;;;;;;;;;;;;2195905;59;2234;-24
2023/04/10 13:45:55;;;;;;;;;;;;;;;;;;2196235;59;2249;-24
2023/04/10 13:48:25;;;;;;;;;;;;;;;;;;2196029;59;2490;-24
2023/04/10 13:50:56;;;;;;;;;;;;;;;;;;2190759;59;2206;-24
2023/04/10 13:53:26;;;;;;;;;;;;;;;;;;2196714;59;1672;-24
2023/04/10 13:55:56;;;;;;;;;;;;;;;;;;2196424;59;2273;-24
2023/04/10 13:58:30;;;;;;;;;;;;;;;;;;2196743;59;2173;-24
2023/04/10 14:01:00;;;;;;;;;;;;;;;;;;2197112;59;2346;-24
2023/04/10 14:03:31;;;;;;;;;;;;;;;;;;2196446;59;2085;-24
2023/04/10 14:06:01;;;;;;;;;;;;;;;;;;2196562;59;2050;-24
2023/04/10 14:08:31;;;;;;;;;;;;;;;;;;2197130;59;1158;-23
2023/04/10 14:11:01;;;;;;;;;;;;;;;;;;2196550;59;2061;-24
2023/04/10 14:13:31;;;;;;;;;;;;;;;;;;2196726;59;1656;-24
2023/04/10 14:16:02;;;;;;;;;;;;;;;;;;2196806;59;1950;-24
2023/04/10 14:18:33;;;;;;;;;;;;;;;;;;2197367;67;2332;-24
2023/04/10 14:21:03;;;;;;;;;;;;;;;;;;2196094;59;2097;-24
2023/04/10 14:23:33;;;;;;;;;;;;;;;;;;2193464;67;2824;-24
2023/04/10 14:26:04;;;;;;;;;;;;;;;;;;2196368;59;2796;-24
2023/04/10 14:28:34;;;;;;;;;;;;;;;;;;2196032;59;1344;-24
2023/04/10 14:31:05;;;;;;;;;;;;;;;;;;2193753;59;2011;-24
2023/04/10 14:33:35;;;;;;;;;;;;;;;;;;2197367;67;1285;-24
2023/04/10 14:36:05;;;;;;;;;;;;;;;;;;2197384;59;1345;-24
2023/04/10 14:38:36;;;;;;;;;;;;;;;;;;2196451;59;2092;-24
2023/04/10 14:41:06;;;;;;;;;;;;;;;;;;2193829;59;2018;-24
2023/04/10 14:43:36;;;;;;;;;;;;;;;;;;2196928;59;3369;-24
2023/04/10 14:46:07;;;;;;;;;;;;;;;;;;2194122;59;2888;-24
2023/04/10 14:48:37;;;;;;;;;;;;;;;;;;2193501;59;2660;-24
2023/04/10 14:51:11;;;;;;;;;;;;;;;;;;2196863;59;2365;-24
2023/04/10 14:53:41;;;;;;;;;;;;;;;;;;2196589;67;1283;-24
2023/04/10 14:56:12;;;;;;;;;;;;;;;;;;2196744;67;1303;-24
2023/04/10 14:58:46;;;;;;;;;;;;;;;;;;2196699;59;2633;-24
2023/04/10 15:01:19;;;;;;;;;;;;;;;;;;2196633;59;2281;-24
2023/04/10 15:03:50;;;;;;;;;;;;;;;;;;2197180;59;2071;-24
2023/04/10 15:06:20;;;;;;;;;;;;;;;;;;2196766;59;1961;-24
2023/04/10 15:08:51;;;;;;;;;;;;;;;;;;2196846;59;3046;-24
2023/04/10 15:11:21;;;;;;;;;;;;;;;;;;2196241;59;2667;-24
2023/04/10 15:13:51;;;;;;;;;;;;;;;;;;2192229;59;2179;-24
2023/04/10 15:16:21;;;;;;;;;;;;;;;;;;2196289;59;2117;-24
2023/04/10 15:18:52;;;;;;;;;;;;;;;;;;2196125;59;2567;-22
2023/04/10 15:21:22;;;;;;;;;;;;;;;;;;2196488;59;2114;-22
2023/04/10 15:23:52;;;;;;;;;;;;;;;;;;2197237;67;1121;-22
2023/04/10 15:26:22;;;;;;;;;;;;;;;;;;2195781;59;2197;-24
2023/04/10 15:28:53;;;;;;;;;;;;;;;;;;2196933;59;2033;-24
2023/04/10 15:31:23;;;;;;;;;;;;;;;;;;2197001;59;2078;-24
2023/04/10 15:33:53;;;;;;;;;;;;;;;;;;2197089;59;2263;-24
2023/04/10 15:36:27;;;;;;;;;;;;;;;;;;2197102;59;1355;-24
2023/04/10 15:38:58;;;;;;;;;;;;;;;;;;2197001;59;2413;-24
2023/04/10 15:41:30;;;;;;;;;;;;;;;;;;2196024;59;1989;-24
2023/04/10 15:44:00;;;;;;;;;;;;;;;;;;2197613;59;3026;-24
2023/04/10 15:46:31;;;;;;;;;;;;;;;;;;2195887;59;2111;-24
2023/04/10 15:49:02;;;;;;;;;;;;;;;;;;2196913;59;2146;-24
2023/04/10 15:51:32;;;;;;;;;;;;;;;;;;2196761;67;1926;-24
2023/04/10 15:54:03;;;;;;;;;;;;;;;;;;2196141;59;2115;-24
2023/04/10 15:56:34;;;;;;;;;;;;;;;;;;2196680;67;1488;-24
2023/04/10 15:59:04;;;;;;;;;;;;;;;;;;2192863;59;2246;-24
2023/04/10 16:01:34;;;;;;;;;;;;;;;;;;2196483;67;1677;-24
2023/04/10 16:04:04;;;;;;;;;;;;;;;;;;2196788;59;2248;-24
2023/04/10 16:06:35;;;;;;;;;;;;;;;;;;2195460;59;3364;-23
2023/04/10 16:09:05;;;;;;;;;;;;;;;;;;2196982;59;1912;-23
2023/04/10 16:11:35;;;;;;;;;;;;;;;;;;2196603;59;2135;-23
2023/04/10 16:14:05;;;;;;;;;;;;;;;;;;2193961;60;1450;-24
2023/04/10 16:16:35;;;;;;;;;;;;;;;;;;2195808;59;2166;-23
2023/04/10 16:19:06;;;;;;;;;;;;;;;;;;2196956;67;1130;-24
2023/04/10 16:21:36;;;;;;;;;;;;;;;;;;2195839;59;2141;-23
2023/04/10 16:24:06;;;;;;;;;;;;;;;;;;2196782;67;1141;-23
2023/04/10 16:26:36;;;;;;;;;;;;;;;;;;2194893;59;4339;-23
2023/04/10 16:29:07;;;;;;;;;;;;;;;;;;2195805;59;2610;-23
2023/04/10 16:31:37;;;;;;;;;;;;;;;;;;2195980;59;2300;-23
2023/04/10 16:34:07;;;;;;;;;;;;;;;;;;2197079;67;2080;-23
2023/04/10 16:36:38;;;;;;;;;;;;;;;;;;2196693;59;1980;-23
2023/04/10 16:39:08;;;;;;;;;;;;;;;;;;2196428;59;2219;-23
2023/04/10 16:41:38;;;;;;;;;;;;;;;;;;2195815;59;2123;-23
2023/04/10 16:44:08;;;;;;;;;;;;;;;;;;2195885;67;2104;-23
2023/04/10 16:46:39;;;;;;;;;;;;;;;;;;2195518;59;2470;-23
2023/04/10 16:49:09;;;;;;;;;;;;;;;;;;2195360;59;2140;-23
2023/04/10 16:51:39;;;;;;;;;;;;;;;;;;2195938;59;2156;-23
2023/04/10 16:54:09;;;;;;;;;;;;;;;;;;2196563;67;1176;-23
2023/04/10 16:56:40;;;;;;;;;;;;;;;;;;2195077;67;2193;-23
2023/04/10 16:59:10;;;;;;;;;;;;;;;;;;2193523;67;2014;-23
2023/04/10 17:01:40;;;;;;;;;;;;;;;;;;2194876;59;1975;-23
2023/04/10 17:04:12;;;;;;;;;;;;;;;;;;2196131;59;2135;-23
2023/04/10 17:06:42;;;;;;;;;;;;;;;;;;2196269;59;2227;-23
2023/04/10 17:09:12;;;;;;;;;;;;;;;;;;2195774;59;2612;-23
2023/04/10 17:11:42;;;;;;;;;;;;;;;;;;2195834;59;2027;-23
2023/04/10 17:14:13;;;;;;;;;;;;;;;;;;2196111;59;2109;-23
2023/04/10 17:16:44;;;;;;;;;;;;;;;;;;2196549;67;1143;-23
2023/04/10 17:19:16;;;;;;;;;;;;;;;;;;2195847;59;2211;-23
2023/04/10 17:21:51;;;;;;;;;;;;;;;;;;2195793;59;1940;-23
2023/04/10 17:24:21;;;;;;;;;;;;;;;;;;2196754;59;2292;-23
2023/04/10 17:26:51;;;;;;;;;;;;;;;;;;2195958;59;2708;-23
2023/04/10 17:29:21;;;;;;;;;;;;;;;;;;2195093;59;2514;-22
2023/04/10 17:31:51;;;;;;;;;;;;;;;;;;2196121;59;1934;-23